Time;durP1;ratioP1;P1;durP2;ratioP2;P2;SDS_P1;SDS_P2;PMS_P1;PMS_P2;Temp;Humidity;BMP_temperature;BMP_pressure;BME280_temperature;BME280_humidity;BME280_pressure;Samples;Min_cycle;Max_cycle;Signal;HPM_P1;HPM_P2
2021/12/11 00:00:30;;;;;;;2.10;1.90;;;19.00;99.90;;;;;;4180570;28;20218;-73
2021/12/11 00:02:34;;;;;;;2.50;2.15;;;19.00;99.90;;;;;;4196688;28;20268;-73
2021/12/11 00:04:39;;;;;;;2.90;1.85;;;19.00;99.90;;;;;;4196868;28;20253;-73
2021/12/11 00:06:44;;;;;;;2.40;1.77;;;19.00;99.90;;;;;;4196549;28;20215;-73
2021/12/11 00:08:49;;;;;;;2.47;1.90;;;19.00;99.90;;;;;;4196795;28;20243;-73
2021/12/11 00:10:55;;;;;;;2.35;1.88;;;19.00;99.90;;;;;;4196887;28;20265;-73
2021/12/11 00:13:01;;;;;;;2.65;2.13;;;19.00;99.90;;;;;;4196860;28;20214;-73
2021/12/11 00:15:09;;;;;;;2.45;1.85;;;18.90;99.90;;;;;;4196755;28;20218;-73
2021/12/11 00:17:12;;;;;;;2.70;1.92;;;18.90;99.90;;;;;;4196075;28;20210;-73
2021/12/11 00:19:20;;;;;;;2.50;1.92;;;18.90;99.90;;;;;;4196789;28;20591;-73
2021/12/11 00:21:25;;;;;;;2.42;2.10;;;18.90;99.90;;;;;;4197105;28;20218;-73
2021/12/11 00:23:34;;;;;;;2.30;2.10;;;18.90;99.90;;;;;;4197026;28;20602;-73
2021/12/11 00:25:43;;;;;;;2.80;2.10;;;18.90;99.90;;;;;;4196853;28;20691;-73
2021/12/11 00:27:47;;;;;;;2.00;1.80;;;18.90;99.90;;;;;;4196824;28;20222;-73
2021/12/11 00:29:51;;;;;;;2.75;1.73;;;18.90;99.90;;;;;;4196456;28;20238;-73
2021/12/11 00:31:59;;;;;;;1.95;1.73;;;18.90;99.90;;;;;;4196628;28;20261;-73
2021/12/11 00:34:03;;;;;;;3.25;1.90;;;18.90;99.90;;;;;;4196276;28;20214;-73
2021/12/11 00:36:10;;;;;;;1.90;1.70;;;18.90;99.90;;;;;;4196375;28;20551;-73
2021/12/11 00:38:15;;;;;;;2.13;1.73;;;18.90;99.90;;;;;;4196723;28;20612;-73
2021/12/11 00:40:24;;;;;;;2.22;1.88;;;18.90;99.90;;;;;;4196689;28;20215;-73
2021/12/11 00:42:33;;;;;;;2.55;1.92;;;18.90;99.90;;;;;;4196509;28;20218;-73
2021/12/11 00:44:38;;;;;;;3.95;1.90;;;18.80;99.90;;;;;;4196557;28;20210;-73
2021/12/11 00:46:41;;;;;;;2.58;1.92;;;18.80;99.90;;;;;;4196471;28;20226;-73
2021/12/11 00:48:45;;;;;;;2.00;1.80;;;18.80;99.90;;;;;;4196042;28;20278;-73
2021/12/11 00:50:51;;;;;;;2.03;1.83;;;18.80;99.90;;;;;;4191133;28;20719;-73
2021/12/11 00:52:56;;;;;;;3.78;2.30;;;18.80;99.90;;;;;;4179977;28;20274;-73
2021/12/11 00:55:01;;;;;;;3.22;1.95;;;18.90;99.90;;;;;;4180113;28;20220;-73
2021/12/11 00:57:04;;;;;;;2.70;1.83;;;18.80;99.90;;;;;;4180008;28;20265;-73
2021/12/11 00:59:09;;;;;;;2.60;1.90;;;18.80;99.90;;;;;;4179961;28;20614;-74
2021/12/11 01:01:14;;;;;;;2.70;1.98;;;18.80;99.90;;;;;;4186123;28;20219;-73
2021/12/11 01:03:21;;;;;;;2.00;1.80;;;18.80;99.90;;;;;;4196765;28;20929;-73
2021/12/11 01:05:25;;;;;;;2.30;1.80;;;18.80;99.90;;;;;;4196233;28;20264;-73
2021/12/11 01:07:31;;;;;;;2.20;1.83;;;18.80;99.90;;;;;;4196514;28;20214;-73
2021/12/11 01:09:39;;;;;;;2.45;2.08;;;18.80;99.90;;;;;;4196431;28;20235;-73
2021/12/11 01:11:44;;;;;;;3.95;2.20;;;18.80;99.90;;;;;;4196689;28;20679;-73
2021/12/11 01:13:50;;;;;;;1.98;1.75;;;18.80;99.90;;;;;;4196726;28;20210;-73
2021/12/11 01:15:58;;;;;;;2.95;1.88;;;18.80;99.90;;;;;;4196588;28;20308;-73
2021/12/11 01:18:21;;;;;;;2.63;1.80;;;18.80;99.90;;;;;;4196391;28;20215;-73
2021/12/11 01:20:35;;;;;;;2.60;2.13;;;18.80;99.90;;;;;;4196560;28;20215;-73
2021/12/11 01:22:38;;;;;;;2.17;1.98;;;18.80;99.90;;;;;;4196158;28;20215;-73
2021/12/11 01:24:45;;;;;;;2.00;1.80;;;18.80;99.90;;;;;;4196119;28;20219;-73
2021/12/11 01:26:51;;;;;;;2.33;1.88;;;18.70;99.90;;;;;;4196388;28;20539;-73
2021/12/11 01:28:54;;;;;;;2.88;2.15;;;18.70;99.90;;;;;;4196947;28;20243;-73
2021/12/11 01:30:57;;;;;;;2.47;1.73;;;18.70;99.90;;;;;;4199287;28;20301;-73
2021/12/11 01:33:03;;;;;;;2.20;1.92;;;18.70;99.90;;;;;;4199708;28;20219;-73
2021/12/11 01:35:08;;;;;;;2.88;2.10;;;18.70;99.90;;;;;;4199579;28;20683;-73
2021/12/11 01:37:14;;;;;;;2.10;1.80;;;18.70;99.90;;;;;;4199628;28;20273;-73
2021/12/11 01:39:22;;;;;;;2.28;2.08;;;18.70;99.90;;;;;;4188356;28;20242;-73
2021/12/11 01:41:24;;;;;;;2.40;2.03;;;18.70;99.90;;;;;;4182793;28;20265;-73
2021/12/11 01:43:31;;;;;;;2.47;2.10;;;18.70;99.90;;;;;;4183024;28;20223;-73
2021/12/11 01:45:34;;;;;;;2.03;1.80;;;18.70;99.90;;;;;;4182982;28;20269;-73
2021/12/11 01:47:41;;;;;;;2.10;1.85;;;18.70;99.90;;;;;;4182826;28;20216;-73
2021/12/11 01:49:48;;;;;;;2.05;1.65;;;18.70;99.90;;;;;;4182526;28;20285;-73
2021/12/11 01:51:55;;;;;;;2.35;2.10;;;18.70;99.90;;;;;;4196457;28;20219;-73
2021/12/11 01:54:05;;;;;;;2.03;1.70;;;18.60;99.90;;;;;;4199119;28;20267;-73
2021/12/11 01:56:10;;;;;;;2.72;2.05;;;18.60;99.90;;;;;;4199354;28;20219;-73
2021/12/11 01:58:17;;;;;;;2.17;1.90;;;18.70;99.90;;;;;;4198839;28;20246;-73
2021/12/11 02:00:24;;;;;;;2.45;1.90;;;18.70;99.90;;;;;;4199043;28;20269;-73
2021/12/11 02:02:30;;;;;;;2.65;2.00;;;18.70;99.90;;;;;;4198581;28;20284;-73
2021/12/11 02:04:37;;;;;;;2.03;1.77;;;18.60;99.90;;;;;;4198873;28;20242;-73
2021/12/11 02:06:42;;;;;;;2.67;1.77;;;18.70;99.90;;;;;;4198641;28;20242;-73
2021/12/11 02:08:44;;;;;;;1.70;1.50;;;18.60;99.90;;;;;;4198754;28;20253;-73
2021/12/11 02:10:54;;;;;;;1.75;1.48;;;18.60;99.90;;;;;;4198520;28;20668;-73
2021/12/11 02:12:59;;;;;;;2.47;1.90;;;18.60;99.90;;;;;;4199639;28;20219;-79
2021/12/11 02:15:06;;;;;;;2.60;1.90;;;18.60;99.90;;;;;;4200032;28;20983;-79
2021/12/11 02:17:16;;;;;;;1.77;1.67;;;18.60;99.90;;;;;;4200171;28;20203;-79
2021/12/11 02:19:28;;;;;;;2.22;1.58;;;18.60;99.90;;;;;;4200251;28;20284;-79
2021/12/11 02:21:34;;;;;;;2.55;1.77;;;18.60;99.90;;;;;;4200020;28;20268;-78
2021/12/11 02:23:39;;;;;;;3.00;1.85;;;18.60;99.90;;;;;;4200173;28;20211;-78
2021/12/11 02:25:44;;;;;;;2.17;1.63;;;18.60;99.90;;;;;;4200229;28;20219;-79
2021/12/11 02:27:51;;;;;;;1.88;1.67;;;18.60;99.90;;;;;;4199713;28;20276;-79
2021/12/11 02:29:58;;;;;;;2.03;1.70;;;18.60;99.90;;;;;;4199706;28;20289;-79
2021/12/11 02:32:05;;;;;;;2.47;1.92;;;18.60;99.90;;;;;;4200006;28;20211;-79
2021/12/11 02:34:14;;;;;;;2.58;1.70;;;18.60;99.90;;;;;;4199831;28;20219;-78
2021/12/11 02:36:22;;;;;;;2.75;2.10;;;18.60;99.90;;;;;;4200047;28;20214;-79
2021/12/11 02:38:30;;;;;;;1.85;1.55;;;18.60;99.90;;;;;;4199603;28;20215;-78
2021/12/11 02:40:40;;;;;;;2.85;1.73;;;18.60;99.90;;;;;;4190977;28;20640;-79
2021/12/11 02:42:49;;;;;;;2.67;1.77;;;18.60;99.90;;;;;;4182954;28;20260;-79
2021/12/11 02:44:55;;;;;;;3.35;1.90;;;18.60;99.90;;;;;;4183269;28;20268;-78
2021/12/11 02:47:03;;;;;;;2.70;1.70;;;18.50;99.90;;;;;;4182919;28;20220;-79
2021/12/11 02:49:11;;;;;;;2.55;1.75;;;18.50;99.90;;;;;;4183225;28;20238;-79
2021/12/11 02:51:17;;;;;;;2.72;1.75;;;18.50;99.90;;;;;;4191223;28;20272;-79
2021/12/11 02:53:23;;;;;;;2.78;1.80;;;18.50;99.90;;;;;;4199511;28;20721;-79
2021/12/11 02:55:35;;;;;;;2.33;1.40;;;18.50;99.90;;;;;;4199562;28;20577;-78
2021/12/11 02:57:42;;;;;;;1.88;1.50;;;18.50;99.90;;;;;;4199244;28;20260;-78
2021/12/11 02:59:46;;;;;;;2.65;1.70;;;18.50;99.90;;;;;;4199348;28;20615;-78
2021/12/11 03:01:51;;;;;;;2.40;1.42;;;18.50;99.90;;;;;;4199145;28;20235;-79
2021/12/11 03:04:03;;;;;;;2.45;1.70;;;18.50;99.90;;;;;;4199531;28;20219;-78
2021/12/11 03:06:13;;;;;;;1.90;1.42;;;18.50;99.90;;;;;;4199163;28;20624;-79
2021/12/11 03:08:20;;;;;;;2.75;1.77;;;18.50;99.90;;;;;;4199199;28;20537;-78
2021/12/11 03:10:25;;;;;;;3.92;1.90;;;18.50;99.90;;;;;;4198911;28;20243;-79
2021/12/11 03:12:29;;;;;;;1.85;1.70;;;18.50;99.90;;;;;;4198842;28;20214;-79
2021/12/11 03:14:32;;;;;;;2.13;1.60;;;18.50;99.90;;;;;;4198910;28;20214;-79
2021/12/11 03:16:36;;;;;;;2.13;1.40;;;18.50;99.90;;;;;;4198951;28;20233;-79
2021/12/11 03:18:39;;;;;;;2.25;1.42;;;18.50;99.90;;;;;;4198997;28;20609;-79
2021/12/11 03:20:45;;;;;;;3.05;1.60;;;18.50;99.90;;;;;;4198864;28;20215;-79
2021/12/11 03:22:48;;;;;;;2.55;1.70;;;18.50;99.90;;;;;;4198576;28;20233;-79
2021/12/11 03:24:50;;;;;;;3.95;1.60;;;18.40;99.90;;;;;;4199267;28;20272;-79
2021/12/11 03:26:54;;;;;;;2.20;1.60;;;18.50;99.90;;;;;;4194402;28;20714;-79
2021/12/11 03:28:58;;;;;;;1.70;1.60;;;18.40;99.90;;;;;;4182690;28;20269;-79
2021/12/11 03:31:04;;;;;;;1.45;1.35;;;18.40;99.90;;;;;;4182204;28;20227;-78
2021/12/11 03:33:10;;;;;;;1.73;1.40;;;18.40;99.90;;;;;;4182350;28;20278;-79
2021/12/11 03:35:12;;;;;;;3.22;1.60;;;18.40;99.90;;;;;;4182492;28;20220;-79
2021/12/11 03:37:17;;;;;;;2.28;1.55;;;18.40;99.90;;;;;;4182265;28;20261;-79
2021/12/11 03:39:23;;;;;;;2.30;1.60;;;18.40;99.90;;;;;;4182680;28;20216;-79
2021/12/11 03:41:27;;;;;;;2.20;1.60;;;18.40;99.90;;;;;;4198014;28;20215;-79
2021/12/11 03:43:30;;;;;;;2.22;1.60;;;18.40;99.90;;;;;;4198698;28;20268;-78
2021/12/11 03:45:37;;;;;;;2.63;1.55;;;18.40;99.90;;;;;;4198529;28;20222;-79
2021/12/11 03:47:42;;;;;;;2.63;1.60;;;18.40;99.90;;;;;;4198675;28;20644;-79
2021/12/11 03:49:45;;;;;;;1.98;1.50;;;18.40;99.90;;;;;;4198497;28;20218;-79
2021/12/11 03:51:49;;;;;;;2.30;1.50;;;18.40;99.90;;;;;;4197465;28;20219;-78
2021/12/11 03:53:52;;;;;;;2.67;1.40;;;18.40;99.90;;;;;;4198543;28;20615;-79
2021/12/11 03:55:58;;;;;;;2.78;1.60;;;18.40;99.90;;;;;;4198488;28;20652;-78
2021/12/11 03:58:01;;;;;;;2.40;1.50;;;18.40;99.90;;;;;;4198213;28;20222;-78
2021/12/11 04:00:09;;;;;;;2.22;1.70;;;18.40;99.90;;;;;;4198152;28;20277;-79
2021/12/11 04:02:13;;;;;;;2.63;1.40;;;18.40;99.90;;;;;;4198259;28;20211;-79
2021/12/11 04:04:21;;;;;;;2.60;1.58;;;18.40;99.90;;;;;;4198645;28;20211;-79
2021/12/11 04:06:24;;;;;;;1.77;1.42;;;18.40;99.90;;;;;;4198113;28;20548;-79
2021/12/11 04:08:30;;;;;;;1.75;1.25;;;18.30;99.90;;;;;;4198222;28;20264;-79
2021/12/11 04:10:32;;;;;;;1.90;1.30;;;18.30;99.90;;;;;;4198133;28;20239;-78
2021/12/11 04:12:35;;;;;;;2.25;1.50;;;18.40;99.90;;;;;;4197997;28;20219;-79
2021/12/11 04:14:39;;;;;;;2.38;1.50;;;18.30;99.90;;;;;;4198178;28;20219;-79
2021/12/11 04:16:43;;;;;;;2.92;1.40;;;18.40;99.90;;;;;;4197953;28;20207;-79
2021/12/11 04:18:47;;;;;;;2.25;1.38;;;18.30;99.90;;;;;;4198272;28;20214;-78
2021/12/11 04:20:51;;;;;;;2.85;1.40;;;18.30;99.90;;;;;;4198230;28;20252;-79
2021/12/11 04:22:55;;;;;;;3.42;1.80;;;18.30;99.90;;;;;;4198088;28;20610;-78
2021/12/11 04:24:57;;;;;;;2.13;1.30;;;18.30;99.90;;;;;;4198326;28;20260;-78
2021/12/11 04:27:04;;;;;;;3.58;1.60;;;18.30;99.90;;;;;;4198331;28;20215;-78
2021/12/11 04:29:08;;;;;;;2.05;1.50;;;18.30;99.90;;;;;;4186873;28;20269;-78
2021/12/11 04:31:13;;;;;;;2.28;1.42;;;18.30;99.90;;;;;;4181675;28;21022;-78
2021/12/11 04:33:16;;;;;;;2.25;1.65;;;18.30;99.90;;;;;;4181877;28;20215;-79
2021/12/11 04:35:22;;;;;;;3.10;1.50;;;18.30;99.90;;;;;;4181723;28;20216;-79
2021/12/11 04:37:29;;;;;;;2.85;1.33;;;18.30;99.90;;;;;;4181716;28;20219;-79
2021/12/11 04:39:36;;;;;;;2.33;1.52;;;18.30;99.90;;;;;;4181763;28;20215;-78
2021/12/11 04:41:49;;;;;;;1.90;1.17;;;18.30;99.90;;;;;;4181844;28;20208;-79
2021/12/11 04:43:54;;;;;;;3.42;1.55;;;18.30;99.90;;;;;;4181417;28;20612;-79
2021/12/11 04:46:01;;;;;;;3.10;1.55;;;18.30;99.90;;;;;;4181148;28;20289;-78
2021/12/11 04:48:07;;;;;;;1.98;1.40;;;18.20;99.90;;;;;;4181436;28;20269;-78
2021/12/11 04:50:21;;;;;;;1.98;1.33;;;18.30;99.90;;;;;;4181315;28;20216;-79
2021/12/11 04:52:33;;;;;;;2.30;1.27;;;18.30;99.90;;;;;;4181218;28;20212;-78
2021/12/11 04:54:49;;;;;;;2.28;1.50;;;18.30;99.90;;;;;;4181104;28;20219;-79
2021/12/11 04:57:24;;;;;;;3.28;1.63;;;18.30;99.90;;;;;;4181190;28;20257;-78
2021/12/11 04:59:45;;;;;;;2.78;1.30;;;18.30;99.90;;;;;;4180117;28;20215;-79
2021/12/11 05:01:57;;;;;;;3.35;1.67;;;18.30;99.90;;;;;;4181523;28;20624;-79
2021/12/11 05:04:15;;;;;;;3.20;1.60;;;18.30;99.90;;;;;;4184027;28;20664;-79
2021/12/11 05:06:37;;;;;;;3.08;1.60;;;18.30;99.90;;;;;;4185139;28;20656;-79
2021/12/11 05:11:06;;;;;;;3.05;1.60;;;18.30;99.90;;;;;;4184756;28;20207;-79
2021/12/11 05:13:08;;;;;;;3.10;1.48;;;18.20;99.90;;;;;;4184517;28;20273;-79
2021/12/11 05:15:15;;;;;;;4.05;1.90;;;18.20;99.90;;;;;;4185070;28;20238;-79
2021/12/11 05:17:17;;;;;;;2.10;1.45;;;18.20;99.90;;;;;;4199188;28;20276;-79
2021/12/11 05:19:20;;;;;;;3.90;1.80;;;18.30;99.90;;;;;;4200966;28;20219;-79
2021/12/11 05:21:23;;;;;;;3.17;1.50;;;18.20;99.90;;;;;;4200773;28;20269;-79
2021/12/11 05:23:25;;;;;;;2.13;1.70;;;18.20;99.90;;;;;;4201050;28;20215;-79
2021/12/11 05:25:29;;;;;;;4.03;1.75;;;18.20;99.90;;;;;;4200978;28;20261;-79
2021/12/11 05:27:35;;;;;;;3.42;1.70;;;18.20;99.90;;;;;;4200848;28;20223;-79
2021/12/11 05:29:38;;;;;;;3.63;1.58;;;18.20;99.90;;;;;;4200548;28;20284;-79
2021/12/11 05:31:40;;;;;;;4.05;1.83;;;18.20;99.90;;;;;;4200650;28;20672;-79
2021/12/11 05:33:44;;;;;;;3.50;1.88;;;18.20;99.90;;;;;;4200345;28;20223;-79
2021/12/11 05:35:47;;;;;;;2.92;1.90;;;18.20;99.90;;;;;;4200769;28;20219;-79
2021/12/11 05:37:50;;;;;;;4.78;1.67;;;18.20;99.90;;;;;;4200736;28;20730;-79
2021/12/11 05:39:54;;;;;;;3.03;1.77;;;18.20;99.90;;;;;;4200585;28;20215;-79
2021/12/11 05:41:58;;;;;;;3.85;1.85;;;18.20;99.90;;;;;;4200556;28;20611;-79
2021/12/11 05:44:00;;;;;;;3.53;1.75;;;18.20;99.90;;;;;;4200534;28;20207;-78
2021/12/11 05:46:04;;;;;;;2.58;1.60;;;18.20;99.90;;;;;;4200328;28;20215;-79
2021/12/11 05:48:07;;;;;;;3.28;1.90;;;18.20;99.90;;;;;;4200505;28;20272;-78
2021/12/11 05:50:14;;;;;;;4.75;2.00;;;18.10;99.90;;;;;;4200446;28;20740;-79
2021/12/11 05:52:18;;;;;;;3.40;1.73;;;18.20;99.90;;;;;;4200132;28;20234;-78
2021/12/11 05:54:23;;;;;;;3.78;2.10;;;18.20;99.90;;;;;;4200621;28;20269;-79
2021/12/11 05:56:26;;;;;;;3.15;1.63;;;18.10;99.90;;;;;;4200306;28;20265;-79
2021/12/11 05:58:46;;;;;;;4.60;2.10;;;18.20;99.90;;;;;;4200346;28;20540;-79
2021/12/11 06:00:52;;;;;;;3.05;1.85;;;18.20;99.90;;;;;;4200456;28;20241;-79
2021/12/11 06:02:55;;;;;;;2.70;1.73;;;18.10;99.90;;;;;;4200112;28;20992;-78
2021/12/11 06:05:00;;;;;;;4.95;2.15;;;18.10;99.90;;;;;;4200350;28;20257;-79
2021/12/11 06:07:04;;;;;;;5.00;2.05;;;18.10;99.90;;;;;;4200427;28;20268;-78
2021/12/11 06:09:09;;;;;;;4.90;2.40;;;18.20;99.90;;;;;;4199798;28;20215;-78
2021/12/11 06:11:14;;;;;;;4.57;2.40;;;18.10;99.90;;;;;;4200119;28;20256;-79
2021/12/11 06:13:17;;;;;;;4.47;1.92;;;18.10;99.90;;;;;;4200177;28;20211;-79
2021/12/11 06:15:22;;;;;;;3.47;1.80;;;18.10;99.90;;;;;;4197645;28;20215;-79
2021/12/11 06:17:28;;;;;;;4.43;2.22;;;18.10;99.90;;;;;;4199301;28;20219;-78
2021/12/11 06:19:31;;;;;;;4.80;2.22;;;18.10;99.90;;;;;;4199895;28;20276;-79
2021/12/11 06:21:35;;;;;;;3.83;1.95;;;18.10;99.90;;;;;;4199664;28;20275;-79
2021/12/11 06:23:37;;;;;;;3.25;1.98;;;18.10;99.90;;;;;;4200185;28;20211;-79
2021/12/11 06:25:40;;;;;;;4.20;2.10;;;18.10;99.90;;;;;;4200069;28;20668;-79
2021/12/11 06:27:42;;;;;;;3.40;1.70;;;18.10;99.90;;;;;;4199964;28;20219;-79
2021/12/11 06:29:45;;;;;;;4.07;2.17;;;18.10;99.90;;;;;;4183164;28;20751;-79
2021/12/11 06:31:50;;;;;;;4.03;2.15;;;18.10;99.90;;;;;;4183026;28;20240;-79
2021/12/11 06:33:55;;;;;;;4.93;2.17;;;18.10;99.90;;;;;;4189546;28;20268;-79
2021/12/11 06:36:01;;;;;;;4.70;2.13;;;18.10;99.90;;;;;;4200074;28;20210;-79
2021/12/11 06:38:07;;;;;;;3.15;2.30;;;18.00;99.90;;;;;;4199920;28;20214;-79
2021/12/11 06:40:10;;;;;;;4.82;2.22;;;18.00;99.90;;;;;;4199641;28;20656;-78
2021/12/11 06:42:13;;;;;;;3.45;1.90;;;18.00;99.90;;;;;;4199591;28;20211;-79
2021/12/11 06:44:15;;;;;;;3.50;2.00;;;18.00;99.90;;;;;;4199799;28;20219;-78
2021/12/11 06:46:18;;;;;;;5.97;2.25;;;18.00;99.90;;;;;;4199683;28;20215;-79
2021/12/11 06:48:23;;;;;;;2.97;2.00;;;18.00;99.90;;;;;;4199601;28;20268;-79
2021/12/11 06:50:25;;;;;;;4.03;2.25;;;18.00;99.90;;;;;;4199272;28;20219;-79
2021/12/11 06:52:28;;;;;;;4.00;2.15;;;18.00;99.90;;;;;;4199604;28;20235;-79
2021/12/11 06:54:30;;;;;;;3.00;2.00;;;18.00;99.90;;;;;;4199586;28;20655;-79
2021/12/11 06:56:34;;;;;;;3.15;1.83;;;18.00;99.90;;;;;;4199750;28;20214;-79
2021/12/11 06:58:37;;;;;;;3.63;2.53;;;18.00;99.90;;;;;;4199474;28;20276;-78
2021/12/11 07:00:40;;;;;;;6.05;1.98;;;17.90;99.90;;;;;;4199519;28;20616;-78
2021/12/11 07:02:42;;;;;;;2.80;2.08;;;17.90;99.90;;;;;;4199839;28;20256;-79
2021/12/11 07:04:47;;;;;;;6.13;2.30;;;17.90;99.90;;;;;;4183791;28;20625;-79
2021/12/11 07:06:53;;;;;;;4.85;2.10;;;17.90;99.90;;;;;;4182902;28;20220;-79
2021/12/11 07:08:56;;;;;;;3.28;2.08;;;17.90;99.90;;;;;;4183025;28;20266;-79
2021/12/11 07:10:59;;;;;;;3.70;2.20;;;18.00;99.90;;;;;;4182661;28;20219;-78
2021/12/11 07:13:02;;;;;;;3.83;2.00;;;17.90;99.90;;;;;;4182898;28;20616;-78
2021/12/11 07:15:07;;;;;;;3.90;2.08;;;17.90;99.90;;;;;;4182599;28;20212;-79
2021/12/11 07:17:09;;;;;;;5.10;2.40;;;17.90;99.90;;;;;;4196035;28;20211;-78
2021/12/11 07:19:12;;;;;;;4.65;1.83;;;17.90;99.90;;;;;;4199248;28;20261;-78
2021/12/11 07:21:18;;;;;;;3.63;1.95;;;17.90;99.90;;;;;;4199312;28;20543;-79
2021/12/11 07:23:20;;;;;;;4.97;2.17;;;17.90;99.90;;;;;;4199187;28;20206;-78
2021/12/11 07:25:27;;;;;;;4.93;2.40;;;17.90;99.90;;;;;;4198805;28;20215;-78
2021/12/11 07:27:30;;;;;;;4.32;2.20;;;17.90;99.90;;;;;;4198966;28;20219;-79
2021/12/11 07:29:33;;;;;;;3.53;2.00;;;17.90;99.90;;;;;;4198886;28;20300;-78
2021/12/11 07:31:36;;;;;;;4.25;1.90;;;17.80;99.90;;;;;;4198813;28;20656;-78
2021/12/11 07:33:38;;;;;;;7.03;2.30;;;17.80;99.90;;;;;;4199190;28;20264;-79
2021/12/11 07:35:44;;;;;;;3.63;1.88;;;17.90;99.90;;;;;;4198484;28;20621;-79
2021/12/11 07:37:50;;;;;;;5.30;2.53;;;17.80;99.90;;;;;;4199028;28;20273;-79
2021/12/11 07:39:52;;;;;;;3.97;2.03;;;17.80;99.90;;;;;;4198519;28;20667;-79
2021/12/11 07:41:56;;;;;;;5.30;2.28;;;17.80;99.90;;;;;;4198693;28;20220;-78
2021/12/11 07:43:59;;;;;;;4.35;2.17;;;17.80;99.90;;;;;;4198669;28;20219;-79
2021/12/11 07:46:04;;;;;;;6.13;2.38;;;17.80;99.90;;;;;;4198593;28;20256;-78
2021/12/11 07:48:07;;;;;;;4.30;1.95;;;17.80;99.90;;;;;;4198857;28;20272;-78
2021/12/11 07:50:10;;;;;;;4.15;2.08;;;17.80;99.90;;;;;;4198732;28;20559;-78
2021/12/11 07:52:13;;;;;;;3.15;1.90;;;17.80;99.90;;;;;;4198680;28;20265;-78
2021/12/11 07:54:17;;;;;;;3.13;1.90;;;17.80;99.90;;;;;;4198656;28;20218;-78
2021/12/11 07:56:20;;;;;;;3.42;2.05;;;17.80;99.90;;;;;;4198696;28;20608;-79
2021/12/11 07:58:23;;;;;;;4.97;1.92;;;17.80;99.90;;;;;;4198887;28;20211;-78
2021/12/11 08:00:27;;;;;;;3.58;2.20;;;17.80;99.90;;;;;;4198404;28;20223;-79
2021/12/11 08:02:30;;;;;;;4.10;2.20;;;17.70;99.90;;;;;;4198669;28;20211;-78
2021/12/11 08:04:34;;;;;;;4.18;1.80;;;17.70;99.90;;;;;;4196523;28;20260;-78
2021/12/11 08:06:37;;;;;;;6.93;2.35;;;17.60;99.90;;;;;;4182431;28;20262;-78
2021/12/11 08:08:42;;;;;;;3.42;1.90;;;17.50;99.90;;;;;;4182149;28;20212;-78
2021/12/11 08:10:49;;;;;;;2.90;1.70;;;17.60;99.90;;;;;;4182160;28;20216;-78
2021/12/11 08:12:52;;;;;;;4.30;2.00;;;17.60;99.90;;;;;;4182071;28;20688;-78
2021/12/11 08:14:54;;;;;;;5.78;2.17;;;17.70;99.90;;;;;;4182301;28;20722;-78
2021/12/11 08:16:59;;;;;;;4.03;2.00;;;17.80;99.90;;;;;;4196229;28;20241;-78
2021/12/11 08:19:03;;;;;;;4.28;1.90;;;17.90;99.90;;;;;;4198385;28;20211;-79
2021/12/11 08:21:07;;;;;;;5.93;2.72;;;17.80;99.90;;;;;;4197984;28;20223;-79
2021/12/11 08:23:10;;;;;;;5.32;1.90;;;17.90;99.90;;;;;;4198215;28;20211;-78
2021/12/11 08:25:13;;;;;;;4.50;2.15;;;17.90;99.90;;;;;;4198220;28;20265;-79
2021/12/11 08:27:19;;;;;;;5.70;2.17;;;17.90;99.90;;;;;;4198595;28;20647;-78
2021/12/11 08:29:22;;;;;;;3.50;2.10;;;17.90;99.90;;;;;;4198151;28;20280;-79
2021/12/11 08:31:25;;;;;;;5.70;2.10;;;17.90;99.90;;;;;;4198485;28;20218;-78
2021/12/11 08:33:28;;;;;;;5.00;2.30;;;18.00;99.90;;;;;;4198028;28;20239;-78
2021/12/11 08:35:30;;;;;;;4.43;2.10;;;18.00;99.90;;;;;;4197961;28;20215;-78
2021/12/11 08:37:33;;;;;;;5.03;1.90;;;18.00;99.90;;;;;;4197709;28;20211;-78
2021/12/11 08:39:36;;;;;;;4.15;1.98;;;18.00;99.90;;;;;;4197994;28;20219;-78
2021/12/11 08:41:40;;;;;;;4.53;2.03;;;18.10;99.90;;;;;;4198107;28;20249;-79
2021/12/11 08:43:52;;;;;;;3.25;2.00;;;18.10;99.90;;;;;;4198188;28;20215;-78
2021/12/11 08:46:07;;;;;;;3.28;1.75;;;18.00;99.90;;;;;;4198116;28;20219;-79
2021/12/11 08:48:10;;;;;;;5.20;2.38;;;18.10;99.90;;;;;;4198175;28;20741;-79
2021/12/11 08:50:17;;;;;;;4.30;2.08;;;18.10;99.90;;;;;;4198047;28;20215;-78
2021/12/11 08:52:23;;;;;;;3.33;1.80;;;18.10;99.90;;;;;;4188549;28;20216;-79
2021/12/11 08:54:28;;;;;;;2.58;1.58;;;18.10;99.90;;;;;;4181561;28;20211;-78
2021/12/11 08:56:30;;;;;;;4.38;2.10;;;18.10;99.90;;;;;;4181560;28;20229;-78
2021/12/11 08:58:33;;;;;;;4.53;2.00;;;18.10;99.90;;;;;;4181709;28;20216;-78
2021/12/11 09:00:40;;;;;;;4.78;2.00;;;18.10;99.90;;;;;;4181291;28;20669;-79
2021/12/11 09:02:47;;;;;;;5.30;1.95;;;18.20;99.90;;;;;;4181658;28;20207;-79
2021/12/11 09:04:55;;;;;;;3.38;1.95;;;18.20;99.90;;;;;;4185577;28;20721;-78
2021/12/11 09:07:02;;;;;;;2.30;1.40;;;18.20;99.90;;;;;;4197801;28;20675;-79
2021/12/11 09:09:13;;;;;;;4.20;1.83;;;18.20;99.90;;;;;;4197852;28;20284;-78
2021/12/11 09:11:23;;;;;;;4.78;2.08;;;18.20;99.90;;;;;;4197538;28;20223;-79
2021/12/11 09:13:29;;;;;;;5.97;2.40;;;18.20;99.90;;;;;;4197727;28;20278;-79
2021/12/11 09:15:40;;;;;;;4.95;1.88;;;18.20;99.90;;;;;;4197422;28;20222;-79
2021/12/11 09:17:45;;;;;;;4.65;1.70;;;18.20;99.90;;;;;;4197646;28;20215;-79
2021/12/11 09:19:51;;;;;;;5.03;2.20;;;18.20;99.90;;;;;;4197997;28;20223;-79
2021/12/11 09:21:57;;;;;;;6.38;2.38;;;18.20;99.90;;;;;;4197931;28;20211;-79
2021/12/11 09:24:10;;;;;;;5.20;2.10;;;18.20;99.90;;;;;;4197840;28;20250;-79
2021/12/11 09:26:20;;;;;;;4.97;2.13;;;18.30;99.90;;;;;;4197854;28;20219;-79
2021/12/11 09:28:27;;;;;;;4.03;1.90;;;18.30;99.90;;;;;;4197557;28;20215;-79
2021/12/11 09:30:37;;;;;;;4.63;2.22;;;18.30;99.90;;;;;;4197430;28;20276;-79
2021/12/11 09:32:45;;;;;;;4.65;1.80;;;18.30;99.90;;;;;;4197611;28;20284;-78
2021/12/11 09:34:54;;;;;;;4.97;2.10;;;18.30;99.90;;;;;;4197693;28;20218;-79
2021/12/11 09:37:01;;;;;;;4.22;1.90;;;18.30;99.90;;;;;;4197645;28;20214;-79
2021/12/11 09:39:11;;;;;;;4.30;1.98;;;18.30;99.90;;;;;;4197541;28;20260;-79
2021/12/11 09:41:20;;;;;;;4.18;1.90;;;18.30;99.90;;;;;;4197500;28;20216;-79
2021/12/11 09:43:39;;;;;;;4.20;1.98;;;18.30;99.90;;;;;;4197315;28;20984;-79
2021/12/11 09:45:44;;;;;;;4.05;1.75;;;18.30;99.90;;;;;;4194426;28;20218;-78
2021/12/11 09:47:53;;;;;;;3.45;1.73;;;18.30;99.90;;;;;;4191856;28;20285;-79
2021/12/11 09:50:03;;;;;;;4.13;2.10;;;18.30;99.90;;;;;;4182076;28;20215;-79
2021/12/11 09:52:17;;;;;;;3.78;1.70;;;18.30;99.90;;;;;;4189967;28;20659;-79
2021/12/11 09:54:22;;;;;;;4.53;1.90;;;18.40;99.90;;;;;;4200898;28;20276;-79
2021/12/11 09:56:28;;;;;;;3.42;1.90;;;18.40;99.90;;;;;;4200495;28;20655;-79
2021/12/11 09:58:35;;;;;;;3.35;1.65;;;18.40;99.90;;;;;;4200368;28;20219;-79
2021/12/11 10:00:42;;;;;;;2.22;1.55;;;18.40;99.90;;;;;;4200280;28;20276;-79
2021/12/11 10:02:45;;;;;;;3.47;2.10;;;18.40;99.90;;;;;;4200040;28;20222;-79
2021/12/11 10:04:57;;;;;;;4.13;1.98;;;18.40;99.90;;;;;;4192883;28;20215;-79
2021/12/11 10:07:25;;;;;;;4.25;1.80;;;18.40;99.90;;;;;;4200226;28;20223;-79
2021/12/11 10:09:43;;;;;;;3.33;1.83;;;18.40;99.90;;;;;;4199953;28;20242;-78
2021/12/11 10:11:55;;;;;;;5.57;2.22;;;18.50;99.90;;;;;;4198426;28;20212;-79
2021/12/11 10:14:03;;;;;;;4.43;1.80;;;18.50;99.90;;;;;;4198207;28;20242;-79
2021/12/11 10:16:06;;;;;;;4.00;1.88;;;18.50;99.90;;;;;;4198162;28;20207;-79
2021/12/11 10:18:11;;;;;;;4.07;1.77;;;18.50;99.90;;;;;;4198245;28;20219;-79
2021/12/11 10:20:18;;;;;;;3.50;2.17;;;18.50;99.90;;;;;;4198573;28;20215;-79
2021/12/11 10:22:23;;;;;;;5.40;1.88;;;18.50;99.90;;;;;;4198004;28;20223;-78
2021/12/11 10:24:28;;;;;;;4.47;1.80;;;18.50;99.90;;;;;;4198568;28;20210;-79
2021/12/11 10:26:32;;;;;;;4.75;2.00;;;18.50;99.90;;;;;;4198584;28;20215;-79
2021/12/11 10:28:34;;;;;;;3.53;1.58;;;18.50;99.90;;;;;;4198430;28;20223;-79
2021/12/11 10:30:41;;;;;;;3.55;1.88;;;18.50;99.90;;;;;;4198581;28;21007;-79
2021/12/11 10:32:45;;;;;;;5.68;2.22;;;18.50;99.90;;;;;;4198774;28;20245;-79
2021/12/11 10:34:50;;;;;;;3.40;1.65;;;18.50;99.90;;;;;;4199045;28;20235;-79
2021/12/11 10:36:57;;;;;;;3.85;2.10;;;18.50;99.90;;;;;;4198967;28;20280;-79
2021/12/11 10:39:01;;;;;;;3.03;1.77;;;18.60;99.90;;;;;;4199083;28;20671;-79
2021/12/11 10:41:07;;;;;;;6.40;2.00;;;18.60;99.90;;;;;;4190431;28;20269;-79
2021/12/11 10:43:14;;;;;;;3.65;1.80;;;18.60;99.90;;;;;;4182841;28;20224;-79
2021/12/11 10:45:18;;;;;;;2.70;1.70;;;18.60;99.90;;;;;;4182511;28;20211;-79
2021/12/11 10:47:28;;;;;;;4.68;2.38;;;18.60;99.90;;;;;;4182681;28;20681;-79
2021/12/11 10:49:33;;;;;;;4.05;2.03;;;18.60;99.90;;;;;;4182978;28;20219;-79
2021/12/11 10:51:41;;;;;;;4.47;2.10;;;18.60;99.90;;;;;;4182089;28;20245;-79
2021/12/11 10:53:46;;;;;;;3.60;1.80;;;18.60;99.90;;;;;;4182516;28;20224;-79
2021/12/11 10:55:51;;;;;;;5.30;2.17;;;18.60;99.90;;;;;;4182443;28;20590;-79
2021/12/11 10:57:56;;;;;;;4.07;1.73;;;18.60;99.90;;;;;;4182463;28;20257;-79